Terminal Aerodrome Forecast
Issued by NWS Greer, SC

Home | Current Version | Previous Version | Text Only | Print | Product List | Glossary On
Versions: 1 2 3 4 5 6 7 8 9 10 11 12 13 14 15 16 17
000
FTUS42 KGSP 310536
TAFGSP
TAF
KGSP 310536Z 3106/0106 00000KT P6SM FEW120 SCT250
     FM310800 VRB02KT 5SM BR FEW060 SCT120
      TEMPO 3109/3112 3SM BR SCT005
     FM311200 24004KT P6SM SCT120
     FM311700 22009G18KT P6SM VCSH BKN050 PROB30 3119/3124 4SM -TSRA
      BKN050CB
     FM010000 22003KT P6SM VCTS BKN050CB
     FM010300 22003KT P6SM SCT080=

USA.gov is the U.S. government's official web portal to all federal, state and local government web resources and services.